Time;durP1;ratioP1;P1;durP2;ratioP2;P2;SDS_P1;SDS_P2;PMS_P1;PMS_P2;Temp;Humidity;BMP_temperature;BMP_pressure;BME280_temperature;BME280_humidity;BME280_pressure;Samples;Min_cycle;Max_cycle;Signal;HPM_P1;HPM_P2
2023/01/06 00:02:02;;;;;;;0.98;0.40;;;18.10;92.20;;;;;;5020551;28;45767;-70
2023/01/06 00:04:29;;;;;;;0.28;0.28;;;18.10;92.20;;;;;;5018168;28;45333;-69
2023/01/06 00:06:56;;;;;;;1.30;0.40;;;18.10;92.20;;;;;;5018277;28;45429;-69
2023/01/06 00:09:24;;;;;;;1.73;0.60;;;18.10;92.40;;;;;;5021283;28;47166;-69
2023/01/06 00:11:51;;;;;;;1.35;0.40;;;18.10;92.30;;;;;;5021579;28;45501;-69
2023/01/06 00:14:17;;;;;;;1.50;0.45;;;18.10;92.40;;;;;;5021356;28;45401;-69
2023/01/06 00:16:44;;;;;;;2.05;0.38;;;18.10;92.50;;;;;;5020379;28;45574;-70
2023/01/06 00:19:11;;;;;;;0.70;0.52;;;18.10;92.50;;;;;;5020140;28;47339;-69
2023/01/06 00:21:41;;;;;;;2.00;0.73;;;18.10;92.60;;;;;;5021158;28;45494;-69
2023/01/06 00:24:08;;;;;;;0.77;0.38;;;18.10;92.60;;;;;;5021041;28;45306;-69
2023/01/06 00:26:37;;;;;;;0.88;0.43;;;18.10;92.60;;;;;;5020679;28;45464;-69
2023/01/06 00:29:04;;;;;;;1.02;0.40;;;18.10;92.70;;;;;;5019683;28;45285;-69
2023/01/06 00:31:30;;;;;;;0.80;0.40;;;18.10;92.70;;;;;;5018580;28;45290;-69
2023/01/06 00:33:57;;;;;;;3.13;0.52;;;18.10;92.80;;;;;;5025059;28;45348;-69
2023/01/06 00:36:25;;;;;;;0.88;0.50;;;18.10;92.60;;;;;;5024242;28;46391;-70
2023/01/06 00:38:52;;;;;;;1.02;0.43;;;18.20;92.60;;;;;;5023705;28;46298;-70
2023/01/06 00:44:06;;;;;;;2.00;0.40;;;18.10;92.50;;;;;;5020949;28;45410;-69
2023/01/06 00:46:33;;;;;;;0.80;0.40;;;18.10;92.50;;;;;;5021495;28;45368;-69
2023/01/06 00:49:01;;;;;;;2.22;0.90;;;18.10;92.50;;;;;;5023492;28;46636;-69
2023/01/06 00:51:28;;;;;;;0.43;0.25;;;18.10;92.50;;;;;;5018751;28;45401;-70
2023/01/06 00:53:55;;;;;;;0.77;0.35;;;18.10;92.40;;;;;;5020217;28;45382;-69
2023/01/06 00:56:22;;;;;;;1.38;0.45;;;18.10;92.40;;;;;;5023744;28;45330;-70
2023/01/06 00:58:49;;;;;;;1.73;0.40;;;18.10;92.30;;;;;;5023212;28;45339;-70
2023/01/06 01:01:17;;;;;;;1.10;0.50;;;18.10;92.30;;;;;;5023226;28;45361;-69
2023/01/06 01:03:44;;;;;;;1.67;0.50;;;18.10;92.30;;;;;;5023934;28;45499;-70
2023/01/06 01:06:11;;;;;;;1.08;0.60;;;18.10;92.40;;;;;;5020599;28;45307;-69
2023/01/06 01:08:38;;;;;;;0.38;0.22;;;18.00;92.30;;;;;;5023451;28;47181;-70
2023/01/06 01:11:05;;;;;;;1.00;0.30;;;18.10;92.80;;;;;;5020964;28;45373;-69
2023/01/06 01:13:33;;;;;;;0.70;0.20;;;18.10;92.50;;;;;;5023160;28;45374;-69
2023/01/06 01:16:04;;;;;;;0.85;0.40;;;18.10;92.60;;;;;;5022795;28;45242;-69
2023/01/06 01:18:33;;;;;;;0.88;0.43;;;18.10;92.60;;;;;;5023236;28;47353;-69
2023/01/06 01:21:00;;;;;;;0.63;0.30;;;18.10;92.70;;;;;;5023462;28;45764;-70
2023/01/06 01:23:27;;;;;;;1.27;0.60;;;18.10;92.60;;;;;;5020962;28;45579;-69
2023/01/06 01:25:55;;;;;;;1.00;0.35;;;18.10;92.70;;;;;;5015618;28;45358;-70
2023/01/06 01:28:21;;;;;;;0.47;0.30;;;18.10;92.70;;;;;;5018617;28;46090;-69
2023/01/06 01:30:48;;;;;;;1.17;0.73;;;18.10;92.50;;;;;;5023948;28;45315;-69
2023/01/06 01:33:15;;;;;;;1.08;0.30;;;18.10;92.60;;;;;;5025523;28;45407;-69
2023/01/06 01:35:43;;;;;;;1.10;0.43;;;18.10;92.60;;;;;;5024843;28;45357;-69
2023/01/06 01:38:10;;;;;;;0.40;0.32;;;18.10;92.70;;;;;;5025513;28;45498;-69
2023/01/06 01:40:37;;;;;;;0.35;0.30;;;18.10;92.50;;;;;;5023446;28;45274;-70
2023/01/06 01:43:04;;;;;;;0.20;0.20;;;18.10;92.60;;;;;;5024213;28;45212;-70
2023/01/06 01:45:44;;;;;;;2.20;0.57;;;18.10;92.40;;;;;;5025053;28;45465;-69
2023/01/06 01:48:19;;;;;;;0.80;0.32;;;18.10;92.40;;;;;;5024596;28;47828;-69
2023/01/06 01:50:53;;;;;;;0.80;0.38;;;18.10;92.30;;;;;;5025181;28;45337;-69
2023/01/06 01:53:23;;;;;;;2.47;0.40;;;18.10;92.40;;;;;;5024664;28;45398;-69
2023/01/06 01:55:53;;;;;;;0.90;0.40;;;18.10;92.30;;;;;;5024620;28;45458;-69
2023/01/06 01:58:25;;;;;;;1.67;0.40;;;18.10;92.10;;;;;;5024546;28;45378;-69
2023/01/06 02:00:52;;;;;;;0.73;0.30;;;18.00;92.00;;;;;;5024738;28;46414;-69
2023/01/06 02:03:22;;;;;;;1.38;0.35;;;18.10;92.00;;;;;;5025038;28;45291;-69
2023/01/06 02:05:54;;;;;;;1.20;0.30;;;18.00;91.90;;;;;;5024214;28;45290;-69
2023/01/06 02:08:26;;;;;;;0.82;0.50;;;18.00;92.00;;;;;;5024445;28;46371;-69
2023/01/06 02:10:53;;;;;;;0.73;0.40;;;18.00;92.10;;;;;;5024310;28;45387;-69
2023/01/06 02:13:20;;;;;;;0.68;0.25;;;18.00;92.10;;;;;;5024565;28;45337;-69
2023/01/06 02:15:46;;;;;;;1.42;0.47;;;18.00;92.30;;;;;;5023861;28;45310;-68
2023/01/06 02:18:37;;;;;;;0.55;0.35;;;18.10;92.20;;;;;;5024191;28;46280;-69
2023/01/06 02:21:31;;;;;;;0.90;0.40;;;18.10;92.20;;;;;;5024319;28;45257;-69
2023/01/06 02:24:32;;;;;;;0.40;0.40;;;18.10;92.30;;;;;;5022777;28;45325;-69
2023/01/06 02:27:37;;;;;;;0.98;0.43;;;18.10;92.20;;;;;;5023733;28;45486;-69
2023/01/06 02:30:39;;;;;;;1.40;0.40;;;18.10;92.30;;;;;;5024184;28;46438;-69
2023/01/06 02:33:15;;;;;;;1.02;0.40;;;18.10;92.30;;;;;;5024497;28;45395;-69
2023/01/06 02:36:00;;;;;;;0.95;0.43;;;18.10;92.30;;;;;;5023539;28;45254;-69
2023/01/06 02:38:41;;;;;;;0.30;0.30;;;18.10;92.40;;;;;;5024082;28;45373;-69
2023/01/06 02:41:17;;;;;;;0.40;0.30;;;18.10;92.40;;;;;;5024230;28;47766;-69
2023/01/06 02:43:59;;;;;;;0.52;0.30;;;18.10;92.40;;;;;;5023750;28;46274;-69
2023/01/06 02:46:38;;;;;;;0.45;0.30;;;18.10;92.40;;;;;;5024146;28;45254;-69
2023/01/06 02:49:15;;;;;;;0.82;0.50;;;18.10;92.40;;;;;;5024410;28;45218;-69
2023/01/06 02:51:49;;;;;;;1.23;0.32;;;18.10;92.50;;;;;;5002059;28;46089;-69
2023/01/06 02:54:25;;;;;;;0.75;0.60;;;18.10;92.40;;;;;;5004421;28;45233;-69
2023/01/06 02:57:00;;;;;;;2.08;0.43;;;18.10;92.60;;;;;;5003349;28;45355;-69
2023/01/06 02:59:32;;;;;;;1.40;0.47;;;18.10;92.50;;;;;;5004684;28;45429;-69
2023/01/06 03:02:01;;;;;;;0.45;0.32;;;18.10;92.50;;;;;;5003887;28;46814;-69
2023/01/06 03:04:34;;;;;;;0.98;0.40;;;18.10;92.40;;;;;;5004302;28;45297;-69
2023/01/06 03:07:03;;;;;;;0.82;0.30;;;18.10;92.50;;;;;;5009631;28;45304;-69
2023/01/06 03:09:35;;;;;;;2.35;0.40;;;18.10;92.40;;;;;;5024173;28;45456;-69
2023/01/06 03:12:07;;;;;;;0.90;0.30;;;18.10;92.50;;;;;;5023642;28;45263;-69
2023/01/06 03:14:39;;;;;;;1.23;0.35;;;18.10;92.40;;;;;;5023560;28;45314;-69
2023/01/06 03:17:06;;;;;;;0.50;0.30;;;18.10;92.50;;;;;;5022143;28;45333;-69
2023/01/06 03:19:34;;;;;;;0.68;0.30;;;18.10;92.60;;;;;;5023618;28;45601;-69
2023/01/06 03:22:02;;;;;;;1.27;0.30;;;18.10;92.70;;;;;;5023501;28;48498;-69
2023/01/06 03:24:29;;;;;;;0.60;0.45;;;18.10;92.70;;;;;;5022909;28;45313;-69
2023/01/06 03:26:56;;;;;;;0.50;0.32;;;18.10;92.70;;;;;;5023573;28;45288;-69
2023/01/06 03:29:24;;;;;;;1.05;0.30;;;18.10;92.70;;;;;;5023951;28;45678;-69
2023/01/06 03:32:00;;;;;;;1.15;0.40;;;18.10;92.70;;;;;;5022802;28;45410;-69
2023/01/06 03:34:43;;;;;;;1.45;0.45;;;18.10;92.70;;;;;;5023231;28;45227;-69
2023/01/06 03:37:20;;;;;;;2.22;0.50;;;18.10;92.60;;;;;;5022636;28;45472;-70
2023/01/06 03:39:57;;;;;;;0.88;0.40;;;18.10;92.70;;;;;;5020157;28;45290;-69
2023/01/06 03:45:37;;;;;;;0.22;0.20;;;18.10;92.60;;;;;;5023256;28;45318;-69
2023/01/06 03:48:10;;;;;;;1.60;0.50;;;18.10;92.80;;;;;;5022439;28;45375;-70
2023/01/06 03:50:42;;;;;;;0.30;0.30;;;18.10;92.80;;;;;;5023039;28;45292;-69
2023/01/06 03:53:22;;;;;;;0.60;0.38;;;18.10;92.70;;;;;;5020346;28;46085;-69
2023/01/06 03:55:54;;;;;;;1.23;0.40;;;18.10;92.70;;;;;;5022253;28;45599;-69
2023/01/06 03:58:21;;;;;;;0.68;0.40;;;18.10;92.60;;;;;;5022626;28;45254;-69
2023/01/06 04:00:49;;;;;;;1.27;0.40;;;18.10;92.60;;;;;;5023023;28;45302;-70
2023/01/06 04:03:16;;;;;;;1.27;0.50;;;18.10;92.60;;;;;;5022225;28;48034;-70
2023/01/06 04:05:44;;;;;;;0.30;0.20;;;18.10;92.60;;;;;;5022250;28;45363;-69
2023/01/06 04:08:11;;;;;;;0.40;0.30;;;18.10;92.60;;;;;;5025912;28;45375;-69
2023/01/06 04:10:38;;;;;;;0.63;0.40;;;18.10;92.60;;;;;;5026491;28;45406;-69
2023/01/06 04:13:04;;;;;;;0.73;0.50;;;18.10;92.50;;;;;;5025362;28;47088;-69
2023/01/06 04:15:31;;;;;;;0.65;0.38;;;18.10;92.50;;;;;;5025181;28;45343;-70
2023/01/06 04:17:58;;;;;;;0.68;0.43;;;18.10;92.50;;;;;;5026161;28;45392;-69
2023/01/06 04:20:26;;;;;;;0.82;0.40;;;18.10;92.50;;;;;;5026011;28;45493;-70
2023/01/06 04:22:55;;;;;;;0.73;0.35;;;18.10;92.50;;;;;;5025508;28;47531;-69
2023/01/06 04:25:22;;;;;;;1.33;0.40;;;18.10;92.40;;;;;;5025403;28;46055;-70
2023/01/06 04:27:49;;;;;;;0.93;0.38;;;18.10;92.20;;;;;;5026470;28;45433;-68
2023/01/06 04:30:16;;;;;;;1.00;0.40;;;18.10;92.10;;;;;;5025993;28;45372;-69
2023/01/06 04:32:43;;;;;;;1.75;0.40;;;18.10;92.00;;;;;;5025532;28;45338;-69
2023/01/06 04:35:12;;;;;;;0.77;0.40;;;18.10;91.90;;;;;;5024727;28;45331;-69
2023/01/06 04:37:38;;;;;;;0.70;0.40;;;18.00;91.80;;;;;;5024912;28;45414;-69
2023/01/06 04:40:08;;;;;;;1.05;0.35;;;18.10;91.80;;;;;;5023293;28;45351;-69
2023/01/06 04:45:16;;;;;;;1.52;0.40;;;18.10;91.60;;;;;;5023422;28;45640;-69
2023/01/06 04:47:42;;;;;;;1.17;0.40;;;18.00;91.40;;;;;;5024159;28;45527;-69
2023/01/06 04:50:10;;;;;;;0.60;0.38;;;18.00;91.30;;;;;;5024825;28;45385;-69
2023/01/06 04:52:37;;;;;;;0.63;0.20;;;18.00;91.40;;;;;;5024313;28;46274;-69
2023/01/06 04:55:04;;;;;;;1.10;0.40;;;18.00;91.30;;;;;;5024739;28;45289;-69
2023/01/06 04:57:32;;;;;;;1.67;0.47;;;18.00;91.30;;;;;;5024232;28;45278;-69
2023/01/06 04:59:59;;;;;;;0.80;0.30;;;18.00;91.40;;;;;;5024892;28;45421;-69
2023/01/06 05:02:25;;;;;;;0.63;0.32;;;18.00;91.30;;;;;;5025503;28;45498;-69
2023/01/06 05:04:52;;;;;;;0.40;0.20;;;18.00;91.40;;;;;;5025206;28;45276;-68
2023/01/06 05:07:19;;;;;;;0.17;0.17;;;18.00;91.40;;;;;;5025250;28;45428;-69
2023/01/06 05:09:46;;;;;;;1.15;0.50;;;18.00;91.50;;;;;;5024609;28;45327;-69
2023/01/06 05:12:12;;;;;;;1.55;0.40;;;18.00;91.50;;;;;;5025228;28;47453;-69
2023/01/06 05:14:40;;;;;;;1.75;0.30;;;18.00;91.50;;;;;;5024949;28;45426;-69
2023/01/06 05:17:07;;;;;;;0.73;0.35;;;18.00;91.70;;;;;;5024634;28;45831;-69
2023/01/06 05:19:34;;;;;;;1.70;0.20;;;18.00;91.60;;;;;;5024195;28;45407;-68
2023/01/06 05:22:01;;;;;;;1.35;0.40;;;18.00;92.30;;;;;;5024215;28;47306;-69
2023/01/06 05:24:27;;;;;;;0.93;0.28;;;18.10;92.00;;;;;;5024449;28;45423;-68
2023/01/06 05:26:54;;;;;;;0.98;0.28;;;18.10;91.90;;;;;;5024208;28;45394;-69
2023/01/06 05:29:21;;;;;;;0.68;0.20;;;18.10;92.10;;;;;;5024479;28;45449;-69
2023/01/06 05:31:49;;;;;;;1.17;0.40;;;18.10;92.10;;;;;;5019683;28;48002;-69
2023/01/06 05:34:16;;;;;;;1.55;0.20;;;18.10;92.00;;;;;;5014925;28;45331;-69
2023/01/06 05:36:43;;;;;;;1.05;0.30;;;18.10;91.90;;;;;;5024218;28;45347;-69
2023/01/06 05:39:10;;;;;;;0.45;0.17;;;18.10;92.00;;;;;;5023402;28;45438;-69
2023/01/06 05:41:37;;;;;;;0.20;0.10;;;18.10;92.10;;;;;;5024298;28;46279;-69
2023/01/06 05:44:04;;;;;;;1.13;0.52;;;18.10;92.10;;;;;;5024216;28;45349;-69
2023/01/06 05:46:30;;;;;;;1.50;0.45;;;18.10;92.00;;;;;;5024695;28;45456;-70
2023/01/06 05:49:00;;;;;;;0.43;0.20;;;18.10;92.10;;;;;;5024525;28;45243;-69
2023/01/06 05:51:28;;;;;;;0.88;0.30;;;18.10;92.10;;;;;;5024200;28;47247;-69
2023/01/06 05:53:55;;;;;;;1.48;0.20;;;18.10;92.00;;;;;;5023752;28;45372;-69
2023/01/06 05:56:23;;;;;;;0.63;0.30;;;18.10;92.10;;;;;;5023383;28;45384;-69
2023/01/06 05:58:52;;;;;;;0.75;0.30;;;18.10;92.00;;;;;;5019270;28;45360;-69
2023/01/06 06:01:21;;;;;;;1.02;0.40;;;18.10;92.10;;;;;;5021078;28;47080;-70
2023/01/06 06:03:48;;;;;;;0.60;0.20;;;18.10;92.10;;;;;;5023935;28;45251;-69
2023/01/06 06:06:16;;;;;;;0.30;0.28;;;18.10;92.10;;;;;;5023797;28;45361;-69
2023/01/06 06:08:43;;;;;;;2.65;0.20;;;18.00;91.90;;;;;;5023535;28;45351;-69
2023/01/06 06:11:12;;;;;;;0.90;0.20;;;18.00;91.90;;;;;;5018697;28;45397;-69
2023/01/06 06:13:44;;;;;;;0.35;0.20;;;18.00;91.90;;;;;;5023281;28;45300;-69
2023/01/06 06:16:13;;;;;;;0.60;0.28;;;18.10;91.90;;;;;;5022269;28;45362;-70
2023/01/06 06:18:42;;;;;;;0.88;0.20;;;18.00;92.00;;;;;;5023414;28;45204;-68
2023/01/06 06:21:11;;;;;;;0.65;0.20;;;18.00;92.20;;;;;;5022800;28;46279;-69
2023/01/06 06:23:40;;;;;;;3.03;0.50;;;18.00;92.40;;;;;;5022899;28;45466;-69
2023/01/06 06:26:07;;;;;;;0.13;0.13;;;18.00;92.50;;;;;;5022429;28;45313;-69
2023/01/06 06:28:35;;;;;;;0.65;0.32;;;18.00;92.40;;;;;;5022711;28;45331;-69
2023/01/06 06:31:06;;;;;;;0.20;0.20;;;18.00;92.40;;;;;;5021021;28;45491;-69
2023/01/06 06:33:33;;;;;;;1.13;0.30;;;18.00;92.40;;;;;;5022635;28;45535;-69
2023/01/06 06:36:01;;;;;;;0.52;0.20;;;18.00;92.30;;;;;;5021839;28;45330;-69
2023/01/06 06:38:29;;;;;;;0.77;0.30;;;18.10;92.30;;;;;;5014314;28;45300;-69
2023/01/06 06:40:57;;;;;;;0.57;0.22;;;18.00;92.30;;;;;;5022543;28;46600;-70
2023/01/06 06:43:24;;;;;;;0.20;0.20;;;18.10;92.30;;;;;;5022339;28;45422;-69
2023/01/06 06:45:51;;;;;;;0.95;0.20;;;18.10;92.40;;;;;;5021874;28;45374;-69
2023/01/06 06:48:17;;;;;;;0.25;0.20;;;18.10;92.30;;;;;;5022629;28;45343;-69
2023/01/06 06:50:44;;;;;;;0.90;0.30;;;18.10;92.30;;;;;;5022650;28;47685;-69
2023/01/06 06:53:11;;;;;;;0.20;0.10;;;18.10;92.30;;;;;;5022345;28;45434;-69
2023/01/06 06:55:39;;;;;;;0.70;0.32;;;18.10;92.30;;;;;;5022055;28;45286;-69
2023/01/06 06:58:07;;;;;;;0.22;0.13;;;18.00;92.30;;;;;;5022868;28;45546;-69
2023/01/06 07:00:34;;;;;;;0.63;0.13;;;18.00;92.20;;;;;;5021843;28;46536;-69
2023/01/06 07:03:00;;;;;;;0.15;0.10;;;18.00;92.30;;;;;;5022670;28;45317;-69
2023/01/06 07:05:28;;;;;;;0.45;0.10;;;18.00;92.30;;;;;;5021988;28;45338;-69
2023/01/06 07:07:55;;;;;;;0.95;0.20;;;18.00;92.40;;;;;;5020812;28;45452;-69
2023/01/06 07:10:21;;;;;;;0.75;0.30;;;18.00;92.40;;;;;;5020997;28;46519;-69
2023/01/06 07:12:48;;;;;;;0.73;0.20;;;17.90;92.30;;;;;;5001819;28;45208;-69
2023/01/06 07:15:17;;;;;;;0.63;0.33;;;17.90;92.30;;;;;;5002267;28;45256;-70
2023/01/06 07:17:43;;;;;;;4.03;0.40;;;17.90;92.30;;;;;;5021855;28;45262;-69
2023/01/06 07:20:11;;;;;;;1.95;0.52;;;18.00;91.70;;;;;;5021654;28;46329;-69
2023/01/06 07:22:38;;;;;;;0.75;0.32;;;18.00;91.40;;;;;;5022162;28;45302;-69
2023/01/06 07:25:06;;;;;;;1.50;0.40;;;18.00;91.90;;;;;;5021827;28;45485;-69
2023/01/06 07:27:33;;;;;;;1.75;0.30;;;18.00;92.20;;;;;;5021745;28;45495;-70
2023/01/06 07:30:00;;;;;;;0.60;0.20;;;18.00;92.30;;;;;;5021545;28;46291;-69
2023/01/06 07:32:28;;;;;;;0.57;0.30;;;18.00;92.20;;;;;;5018252;28;45399;-69
2023/01/06 07:34:55;;;;;;;0.38;0.28;;;18.00;92.20;;;;;;5021640;28;45342;-69
2023/01/06 07:37:22;;;;;;;0.50;0.30;;;18.00;92.20;;;;;;5021466;28;45323;-69
2023/01/06 07:39:49;;;;;;;3.60;0.55;;;18.00;92.20;;;;;;5021344;28;46296;-69
2023/01/06 07:42:15;;;;;;;0.32;0.30;;;18.00;92.10;;;;;;5023266;28;45524;-69
2023/01/06 07:44:42;;;;;;;0.63;0.30;;;18.00;92.00;;;;;;5023075;28;45453;-70
2023/01/06 07:47:10;;;;;;;0.68;0.17;;;18.00;91.90;;;;;;5025131;28;45417;-69
2023/01/06 07:49:38;;;;;;;0.55;0.28;;;18.00;92.00;;;;;;5025549;28;45379;-69
2023/01/06 07:52:05;;;;;;;0.90;0.28;;;18.00;91.80;;;;;;5025901;28;45303;-69
2023/01/06 07:54:32;;;;;;;0.88;0.20;;;18.00;91.70;;;;;;5024569;28;45414;-70
2023/01/06 07:56:59;;;;;;;0.38;0.30;;;18.00;91.60;;;;;;5025296;28;45292;-69
2023/01/06 07:59:25;;;;;;;0.85;0.40;;;18.00;91.50;;;;;;5025541;28;47529;-69
2023/01/06 08:01:52;;;;;;;1.27;0.10;;;18.00;91.20;;;;;;5024726;28;45313;-70
2023/01/06 08:04:19;;;;;;;0.43;0.28;;;18.00;91.10;;;;;;5025841;28;45406;-69
2023/01/06 08:06:47;;;;;;;0.20;0.20;;;18.00;90.90;;;;;;5024599;28;45616;-69
2023/01/06 08:09:14;;;;;;;0.55;0.30;;;18.00;90.70;;;;;;5025164;28;47459;-69
2023/01/06 08:11:40;;;;;;;3.53;0.40;;;17.90;90.30;;;;;;5025446;28;45362;-69
2023/01/06 08:14:07;;;;;;;0.35;0.25;;;17.90;90.60;;;;;;5018295;28;45552;-70
2023/01/06 08:16:34;;;;;;;0.30;0.22;;;17.90;90.50;;;;;;5017785;28;45605;-69
2023/01/06 08:19:00;;;;;;;0.20;0.10;;;17.90;90.60;;;;;;5024913;28;46607;-69
2023/01/06 08:21:27;;;;;;;0.85;0.30;;;17.90;90.70;;;;;;5023333;28;45398;-69
2023/01/06 08:23:55;;;;;;;0.30;0.17;;;17.80;90.80;;;;;;5023782;28;45475;-69
2023/01/06 08:26:22;;;;;;;0.90;0.38;;;17.80;91.10;;;;;;5024257;28;45461;-69
2023/01/06 08:28:50;;;;;;;0.40;0.25;;;17.80;91.20;;;;;;5024609;28;47918;-70
2023/01/06 08:31:18;;;;;;;0.28;0.20;;;17.90;91.40;;;;;;5025051;28;45693;-69
2023/01/06 08:33:46;;;;;;;0.05;0.05;;;17.90;91.30;;;;;;5024706;28;45435;-69
2023/01/06 08:36:16;;;;;;;0.10;0.10;;;17.90;91.20;;;;;;5024074;28;45483;-69
2023/01/06 08:38:43;;;;;;;0.82;0.35;;;17.90;91.30;;;;;;5022678;28;45447;-69
2023/01/06 08:41:12;;;;;;;1.08;0.38;;;17.90;91.30;;;;;;5023483;28;45752;-70
2023/01/06 08:43:41;;;;;;;0.20;0.10;;;17.90;91.40;;;;;;5024506;28;45338;-69
2023/01/06 08:46:10;;;;;;;0.47;0.20;;;17.90;91.30;;;;;;5023959;28;45626;-69
2023/01/06 08:48:37;;;;;;;0.20;0.10;;;17.90;91.30;;;;;;5024270;28;45316;-69
2023/01/06 08:51:04;;;;;;;1.10;0.20;;;17.90;90.90;;;;;;5023630;28;45496;-69
2023/01/06 08:53:31;;;;;;;0.38;0.20;;;17.90;89.60;;;;;;5022504;28;45373;-69
2023/01/06 08:55:58;;;;;;;0.22;0.22;;;17.90;88.70;;;;;;5020504;28;45424;-69
2023/01/06 08:58:26;;;;;;;0.10;0.10;;;17.90;87.50;;;;;;5024280;28;45416;-69
2023/01/06 09:00:53;;;;;;;0.10;0.10;;;17.90;86.90;;;;;;5023947;28;45378;-69
2023/01/06 09:03:20;;;;;;;0.08;0.08;;;17.90;85.70;;;;;;5024583;28;45388;-69
2023/01/06 09:05:53;;;;;;;0.50;0.15;;;17.90;85.40;;;;;;5023274;28;45443;-70
2023/01/06 09:08:19;;;;;;;0.30;0.20;;;17.90;85.10;;;;;;5023936;28;45544;-69
2023/01/06 09:10:46;;;;;;;0.30;0.10;;;17.90;86.50;;;;;;5024389;28;45366;-69
2023/01/06 09:13:13;;;;;;;0.50;0.10;;;17.80;86.50;;;;;;5024118;28;45377;-69
2023/01/06 09:15:43;;;;;;;0.30;0.20;;;17.80;88.00;;;;;;5023836;28;45283;-68
2023/01/06 09:18:12;;;;;;;0.32;0.10;;;17.80;88.70;;;;;;5022396;28;45472;-69
2023/01/06 09:20:38;;;;;;;2.28;0.30;;;17.80;88.90;;;;;;5017199;28;45400;-69
2023/01/06 09:23:05;;;;;;;0.73;0.28;;;17.80;89.10;;;;;;5017259;28;45412;-70
2023/01/06 09:25:32;;;;;;;0.60;0.20;;;17.80;89.80;;;;;;5019975;28;45674;-70
2023/01/06 09:27:59;;;;;;;0.30;0.20;;;17.80;90.10;;;;;;5023300;28;46273;-68
2023/01/06 09:30:25;;;;;;;0.10;0.10;;;17.80;90.50;;;;;;5010933;28;45547;-69
2023/01/06 09:32:54;;;;;;;0.45;0.20;;;17.80;90.50;;;;;;5017288;28;45603;-69
2023/01/06 09:35:20;;;;;;;0.10;0.10;;;17.80;90.60;;;;;;5019098;28;45391;-69
2023/01/06 09:37:47;;;;;;;0.73;0.22;;;17.90;90.60;;;;;;5022809;28;46320;-69
2023/01/06 09:40:17;;;;;;;0.10;0.10;;;17.90;90.70;;;;;;5022766;28;45649;-70
2023/01/06 09:43:01;;;;;;;0.40;0.10;;;17.90;90.70;;;;;;5022409;28;45437;-69
2023/01/06 09:45:35;;;;;;;0.47;0.20;;;17.90;90.70;;;;;;5019364;28;45484;-69
2023/01/06 09:48:06;;;;;;;0.38;0.10;;;17.90;90.70;;;;;;5021985;28;45332;-69
2023/01/06 09:50:37;;;;;;;0.10;0.10;;;17.90;90.80;;;;;;5016522;28;45361;-69
2023/01/06 09:53:10;;;;;;;0.40;0.10;;;17.90;90.90;;;;;;5023174;28;45583;-69
2023/01/06 09:55:42;;;;;;;0.10;0.10;;;18.00;90.90;;;;;;5023420;28;45534;-69
2023/01/06 09:58:13;;;;;;;0.30;0.20;;;18.00;91.00;;;;;;5021669;28;47776;-69
2023/01/06 10:00:44;;;;;;;0.32;0.20;;;18.00;91.00;;;;;;5021660;28;45340;-69
2023/01/06 10:03:16;;;;;;;0.20;0.20;;;18.00;91.00;;;;;;5023993;28;45350;-69
2023/01/06 10:05:54;;;;;;;0.40;0.13;;;18.00;91.10;;;;;;5022908;28;45415;-69
2023/01/06 10:08:30;;;;;;;0.20;0.10;;;18.00;91.20;;;;;;5022820;28;47155;-69
2023/01/06 10:11:10;;;;;;;0.98;0.20;;;18.00;91.30;;;;;;5020694;28;45421;-70
2023/01/06 10:13:55;;;;;;;1.08;0.20;;;18.00;91.20;;;;;;5023714;28;45351;-69
2023/01/06 10:16:31;;;;;;;1.15;0.35;;;18.00;91.20;;;;;;5023917;28;45270;-69
2023/01/06 10:19:09;;;;;;;0.10;0.10;;;17.90;91.20;;;;;;5020492;28;48041;-69
2023/01/06 10:21:46;;;;;;;0.65;0.17;;;18.00;91.70;;;;;;5023202;28;45623;-69
2023/01/06 10:24:34;;;;;;;0.10;0.10;;;18.00;91.20;;;;;;5022242;28;45442;-69
2023/01/06 10:27:13;;;;;;;0.28;0.10;;;18.00;91.30;;;;;;5023112;28;45356;-70
2023/01/06 10:29:43;;;;;;;0.80;0.20;;;18.00;91.30;;;;;;5022728;28;46315;-69
2023/01/06 10:32:15;;;;;;;0.20;0.13;;;18.00;91.40;;;;;;5022976;28;45885;-70
2023/01/06 10:34:46;;;;;;;0.22;0.10;;;18.00;91.50;;;;;;5022792;28;45389;-70
2023/01/06 10:37:19;;;;;;;0.73;0.40;;;18.00;91.50;;;;;;5020582;28;45537;-70
2023/01/06 10:39:50;;;;;;;0.40;0.20;;;18.00;91.40;;;;;;5016243;28;46570;-70
2023/01/06 10:45:11;;;;;;;1.23;0.30;;;18.00;92.00;;;;;;5022202;28;45500;-70
2023/01/06 10:47:40;;;;;;;0.30;0.20;;;18.00;91.60;;;;;;5019840;28;45496;-69
2023/01/06 10:50:13;;;;;;;0.38;0.20;;;18.00;91.60;;;;;;5019966;28;48735;-69
2023/01/06 10:52:40;;;;;;;0.60;0.30;;;18.00;91.80;;;;;;5022126;28;45449;-69
2023/01/06 10:55:08;;;;;;;0.80;0.35;;;18.00;91.80;;;;;;5022476;28;45441;-69
2023/01/06 10:57:39;;;;;;;2.17;0.38;;;18.00;91.80;;;;;;5015429;28;45205;-69
2023/01/06 11:00:21;;;;;;;0.80;0.22;;;18.00;91.70;;;;;;5021584;28;46330;-69
2023/01/06 11:02:50;;;;;;;0.77;0.20;;;18.00;91.70;;;;;;5021308;28;45512;-69
2023/01/06 11:05:22;;;;;;;0.15;0.10;;;18.00;91.70;;;;;;5018852;28;45427;-70
2023/01/06 11:07:55;;;;;;;0.28;0.20;;;18.00;91.70;;;;;;5020961;28;45480;-68
2023/01/06 11:10:31;;;;;;;0.40;0.35;;;18.00;91.80;;;;;;5020616;28;45421;-68
2023/01/06 11:13:02;;;;;;;0.22;0.10;;;18.00;91.80;;;;;;5018876;28;45400;-68
2023/01/06 11:15:36;;;;;;;0.63;0.30;;;17.90;91.80;;;;;;5017112;28;45306;-68
2023/01/06 11:18:04;;;;;;;0.25;0.15;;;18.00;91.80;;;;;;5014817;28;45307;-69
2023/01/06 11:20:34;;;;;;;0.35;0.20;;;17.90;91.80;;;;;;5022197;28;45448;-68
2023/01/06 11:23:20;;;;;;;1.08;0.20;;;18.00;91.80;;;;;;5021460;28;45495;-69
2023/01/06 11:26:05;;;;;;;3.42;0.30;;;17.90;91.80;;;;;;5021554;28;45317;-69
2023/01/06 11:28:33;;;;;;;5.50;1.20;;;18.00;91.50;;;;;;5018931;28;45548;-66
2023/01/06 11:31:03;;;;;;;1.77;0.60;;;18.10;92.50;;;;;;5003405;28;46277;-66
2023/01/06 11:33:33;;;;;;;1.77;0.47;;;18.30;92.40;;;;;;5018149;28;45403;-66
2023/01/06 11:36:08;;;;;;;0.28;0.20;;;18.20;90.80;;;;;;5019600;28;45380;-66
2023/01/06 11:38:41;;;;;;;1.05;0.20;;;18.20;90.40;;;;;;5019222;28;45413;-66
2023/01/06 11:41:10;;;;;;;2.92;0.50;;;18.20;90.50;;;;;;5016215;28;45454;-66
2023/01/06 11:43:38;;;;;;;0.57;0.22;;;18.20;90.50;;;;;;5020190;28;45397;-66
2023/01/06 11:46:07;;;;;;;1.85;0.40;;;18.20;90.60;;;;;;5020390;28;45386;-66
2023/01/06 11:48:40;;;;;;;0.32;0.30;;;18.20;90.70;;;;;;5016123;28;45252;-66
2023/01/06 11:51:09;;;;;;;1.65;0.40;;;18.20;90.50;;;;;;5018355;28;45464;-66
2023/01/06 11:53:37;;;;;;;2.10;0.40;;;18.30;90.50;;;;;;5019485;28;45420;-66
2023/01/06 11:56:06;;;;;;;0.45;0.20;;;18.30;90.50;;;;;;5022039;28;45397;-66
2023/01/06 11:58:45;;;;;;;0.73;0.20;;;18.30;90.60;;;;;;5018558;28;45215;-66
2023/01/06 12:01:20;;;;;;;1.42;0.32;;;18.30;90.60;;;;;;5019626;28;45499;-66
2023/01/06 12:03:50;;;;;;;2.05;0.40;;;18.30;90.60;;;;;;5005087;28;45638;-67
2023/01/06 12:06:28;;;;;;;0.93;0.25;;;18.30;90.70;;;;;;5017285;28;45267;-67
2023/01/06 12:09:00;;;;;;;0.60;0.30;;;18.30;90.70;;;;;;5014573;28;45353;-67
2023/01/06 12:11:34;;;;;;;0.90;0.20;;;18.30;90.70;;;;;;5011617;28;48210;-66
2023/01/06 12:14:01;;;;;;;0.55;0.40;;;18.30;90.80;;;;;;5019127;28;45311;-66
2023/01/06 12:16:35;;;;;;;0.20;0.13;;;18.30;90.80;;;;;;5020800;28;45470;-66
2023/01/06 12:19:13;;;;;;;1.13;0.20;;;18.30;90.90;;;;;;5013979;28;45376;-66
2023/01/06 12:21:42;;;;;;;1.77;0.20;;;18.30;90.90;;;;;;5024989;28;47662;-66
2023/01/06 12:24:15;;;;;;;0.47;0.40;;;18.30;90.90;;;;;;5020238;28;45390;-66
2023/01/06 12:26:43;;;;;;;0.55;0.20;;;18.30;90.90;;;;;;5015193;28;45578;-66
2023/01/06 12:29:17;;;;;;;0.65;0.40;;;18.30;90.90;;;;;;5017328;28;45525;-66
2023/01/06 12:31:51;;;;;;;2.53;0.60;;;18.30;90.90;;;;;;5016858;28;48039;-66
2023/01/06 12:34:24;;;;;;;1.33;0.22;;;18.30;90.90;;;;;;5020236;28;45503;-67
2023/01/06 12:36:58;;;;;;;0.38;0.20;;;18.30;91.00;;;;;;5023439;28;45326;-67
2023/01/06 12:39:33;;;;;;;0.63;0.20;;;18.30;91.00;;;;;;5020805;28;45199;-67
2023/01/06 12:42:07;;;;;;;0.73;0.25;;;18.30;91.00;;;;;;5024956;28;45525;-66
2023/01/06 12:44:41;;;;;;;0.28;0.28;;;18.30;91.00;;;;;;5024895;28;45204;-66
2023/01/06 12:47:15;;;;;;;0.43;0.30;;;18.30;91.00;;;;;;5022087;28;45491;-66
2023/01/06 12:49:48;;;;;;;1.15;0.30;;;18.40;91.10;;;;;;5024409;28;45484;-67
2023/01/06 12:52:22;;;;;;;1.02;0.30;;;18.30;91.00;;;;;;5023407;28;47159;-66
2023/01/06 12:54:52;;;;;;;0.85;0.40;;;18.30;91.10;;;;;;5024492;28;45370;-66
2023/01/06 12:57:35;;;;;;;0.75;0.30;;;18.30;91.20;;;;;;5025958;28;45204;-66
2023/01/06 13:00:16;;;;;;;0.25;0.10;;;18.30;91.30;;;;;;5025540;28;45263;-67
2023/01/06 13:02:55;;;;;;;1.33;0.47;;;18.30;91.30;;;;;;5023014;28;46527;-67
2023/01/06 13:05:41;;;;;;;0.20;0.20;;;18.30;91.30;;;;;;5026141;28;45435;-66
2023/01/06 13:08:21;;;;;;;0.88;0.20;;;18.30;91.30;;;;;;5023385;28;45382;-66
2023/01/06 13:10:57;;;;;;;0.35;0.28;;;18.30;91.20;;;;;;5021013;28;45381;-67
2023/01/06 13:13:40;;;;;;;0.68;0.47;;;18.30;91.30;;;;;;5024370;28;45315;-66
2023/01/06 13:16:18;;;;;;;0.57;0.43;;;18.30;91.30;;;;;;5023511;28;45409;-67